Lamont, Michigan
Current Conditions -  °F | °C
As of 8:53 AM on Saturday 22 Nov 2014 (Local Time) from KGRR Reporting Station
Light Rain Light Rain  
Wind Chill: 27°   Ceiling: 600
Heat Index: 35°   Visibility: 3mi
Dew Point: 32°   Wind: 10mph
Humidity: 89%   Direction: 210°SSW
Pressure: 30.03"   Gusts: NA
Location:  43.01°N, 85.91°W
Report Text: KGRR 221353Z 21009KT 3SM -RA BR OVC006 02/00 A3003 RMK AO2 SLP179 P0001 T00170000
Loading
Personal Weather Stations






























Interactive Weather Map New forecast layout! Learn more

10-Day Weather Forecast

Advertisements
Track Severe Weather on mobile